Time;durP1;ratioP1;P1;durP2;ratioP2;P2;SDS_P1;SDS_P2;PMS_P1;PMS_P2;Temp;Humidity;BMP_temperature;BMP_pressure;BME280_temperature;BME280_humidity;BME280_pressure;Samples;Min_cycle;Max_cycle;Signal;HPM_P1;HPM_P2
2022/12/21 02:45:44;;;;;;;12.87;6.90;;;;;;;;;;1849039;75;21353;-48
2022/12/21 02:48:23;;;;;;;10.43;5.10;;;;;;;;;;1849061;75;21831;-47
2022/12/21 02:50:51;;;;;;;16.70;7.33;;;;;;;;;;1851411;75;21506;-48
2022/12/21 02:53:20;;;;;;;12.90;6.63;;;;;;;;;;1852990;75;21021;-47
2022/12/21 02:55:46;;;;;;;15.47;7.27;;;;;;;;;;1853616;75;21069;-48
2022/12/21 02:58:15;;;;;;;15.70;7.13;;;;;;;;;;1850671;75;21096;-47
2022/12/21 03:00:54;;;;;;;11.10;7.00;;;;;;;;;;1850968;75;21806;-48
2022/12/21 03:04:06;;;;;;;14.00;7.37;;;;;;;;;;1852755;75;21323;-48
2022/12/21 03:07:02;;;;;;;13.27;6.50;;;;;;;;;;1853173;75;21073;-46
2022/12/21 03:09:49;;;;;;;11.83;6.07;;;;;;;;;;1847545;75;21570;-50
2022/12/21 03:12:23;;;;;;;9.93;6.00;;;;;;;;;;1848375;75;21038;-47
2022/12/21 03:15:05;;;;;;;13.17;7.67;;;;;;;;;;1840081;77;22005;-47
2022/12/21 03:17:39;;;;;;;13.40;6.83;;;;;;;;;;1844454;75;21049;-46
2022/12/21 03:20:09;;;;;;;13.70;6.70;;;;;;;;;;1848076;75;21096;-47
2022/12/21 03:22:48;;;;;;;11.80;7.30;;;;;;;;;;1853178;75;22169;-46
2022/12/21 03:25:30;;;;;;;13.63;7.33;;;;;;;;;;1848475;75;21488;-47
2022/12/21 03:27:59;;;;;;;13.67;6.80;;;;;;;;;;1850996;75;22670;-47
2022/12/21 03:30:26;;;;;;;10.20;6.50;;;;;;;;;;1848600;75;20977;-47
2022/12/21 03:32:58;;;;;;;16.70;8.40;;;;;;;;;;1841536;76;21044;-47
2022/12/21 03:35:27;;;;;;;16.60;8.23;;;;;;;;;;1840891;76;21582;-48
2022/12/21 03:37:55;;;;;;;15.23;7.60;;;;;;;;;;1841734;76;20981;-47
2022/12/21 03:40:23;;;;;;;15.77;9.17;;;;;;;;;;1844875;76;21784;-47
2022/12/21 03:43:14;;;;;;;11.13;7.00;;;;;;;;;;1838115;76;21538;-47
2022/12/21 03:45:44;;;;;;;12.50;7.60;;;;;;;;;;1845118;77;21084;-47
2022/12/21 03:48:13;;;;;;;13.00;6.63;;;;;;;;;;1845638;75;22335;-46
2022/12/21 03:50:41;;;;;;;13.60;8.20;;;;;;;;;;1849829;77;21025;-47
2022/12/21 03:53:31;;;;;;;12.57;8.17;;;;;;;;;;1843267;76;21816;-46
2022/12/21 03:55:57;;;;;;;13.00;8.67;;;;;;;;;;1842282;76;21054;-46
2022/12/21 03:58:23;;;;;;;13.57;8.30;;;;;;;;;;1841573;76;21001;-47
2022/12/21 04:00:53;;;;;;;14.30;8.17;;;;;;;;;;1845470;76;21198;-47
2022/12/21 04:03:25;;;;;;;14.43;8.33;;;;;;;;;;1844121;76;21293;-46
2022/12/21 04:05:54;;;;;;;12.77;6.93;;;;;;;;;;1846572;76;21809;-47
2022/12/21 04:08:20;;;;;;;13.03;6.57;;;;;;;;;;1815447;77;20985;-47
2022/12/21 04:10:48;;;;;;;13.73;7.13;;;;;;;;;;1841834;76;21099;-46
2022/12/21 04:13:15;;;;;;;12.00;6.60;;;;;;;;;;1844046;76;21021;-46
2022/12/21 04:21:12;;;;;;;14.23;7.07;;;;;;;;;;1841141;76;21312;-47
2022/12/21 04:29:07;;;;;;;11.12;7.50;;;;;;;;;;1845021;76;21553;-47
2022/12/21 04:31:33;;;;;;;12.57;7.13;;;;;;;;;;1842943;76;21804;-46
2022/12/21 04:34:01;;;;;;;14.70;7.47;;;;;;;;;;1843798;77;21017;-46
2022/12/21 04:39:12;;;;;;;10.50;6.37;;;;;;;;;;1844997;76;21021;-47
2022/12/21 04:41:38;;;;;;;15.03;7.87;;;;;;;;;;1844766;77;21085;-46
2022/12/21 04:44:05;;;;;;;11.37;6.87;;;;;;;;;;1840489;76;21867;-47
2022/12/21 04:46:31;;;;;;;11.83;7.13;;;;;;;;;;1839999;77;21017;-47
2022/12/21 04:48:57;;;;;;;13.20;7.07;;;;;;;;;;1833160;76;21060;-46
2022/12/21 04:51:24;;;;;;;13.77;7.03;;;;;;;;;;1838412;76;21506;-46
2022/12/21 04:53:51;;;;;;;13.83;7.97;;;;;;;;;;1845150;77;20958;-47
2022/12/21 04:56:17;;;;;;;12.60;7.17;;;;;;;;;;1839623;76;21812;-47
2022/12/21 04:58:44;;;;;;;13.57;7.03;;;;;;;;;;1837051;76;21205;-47
2022/12/21 05:01:11;;;;;;;15.00;7.57;;;;;;;;;;1834433;76;21588;-47
2022/12/21 05:03:38;;;;;;;14.20;7.60;;;;;;;;;;1844350;76;21006;-46
2022/12/21 05:06:04;;;;;;;15.10;8.00;;;;;;;;;;1845999;76;20977;-45
2022/12/21 05:08:30;;;;;;;11.90;6.33;;;;;;;;;;1844530;77;21850;-46
2022/12/21 05:11:12;;;;;;;15.40;7.47;;;;;;;;;;1840097;77;20961;-46
2022/12/21 05:13:39;;;;;;;14.53;8.27;;;;;;;;;;1847742;76;20962;-46
2022/12/21 05:16:06;;;;;;;13.60;7.47;;;;;;;;;;1836411;76;20978;-46
2022/12/21 05:18:32;;;;;;;15.07;7.83;;;;;;;;;;1841245;76;20970;-47
2022/12/21 05:20:59;;;;;;;13.90;7.30;;;;;;;;;;1841412;76;21780;-46
2022/12/21 05:23:25;;;;;;;17.27;8.80;;;;;;;;;;1807187;77;20962;-46
2022/12/21 05:25:51;;;;;;;14.73;8.60;;;;;;;;;;1803151;78;20954;-48
2022/12/21 05:28:17;;;;;;;16.90;8.50;;;;;;;;;;1803138;79;20974;-46
2022/12/21 05:30:43;;;;;;;22.47;10.40;;;;;;;;;;1806151;79;20946;-47
2022/12/21 05:33:09;;;;;;;22.73;10.57;;;;;;;;;;1800124;79;21796;-46
2022/12/21 05:35:39;;;;;;;22.93;9.57;;;;;;;;;;1807357;78;20990;-47
2022/12/21 05:38:06;;;;;;;24.13;11.87;;;;;;;;;;1806292;79;21002;-47
2022/12/21 05:40:33;;;;;;;20.73;9.77;;;;;;;;;;1803816;78;20974;-47
2022/12/21 05:43:01;;;;;;;19.30;10.37;;;;;;;;;;1755451;79;21078;-47
2022/12/21 05:45:27;;;;;;;18.63;9.70;;;;;;;;;;1744255;80;21810;-47
2022/12/21 05:47:56;;;;;;;18.23;10.30;;;;;;;;;;1749984;80;21002;-47
2022/12/21 05:50:22;;;;;;;32.77;11.60;;;;;;;;;;1745521;80;21046;-46
2022/12/21 05:52:50;;;;;;;30.73;13.67;;;;;;;;;;1742044;80;21108;-47
2022/12/21 05:55:16;;;;;;;31.73;13.70;;;;;;;;;;1723616;82;21093;-46
2022/12/21 05:57:43;;;;;;;36.23;13.10;;;;;;;;;;1776236;79;21780;-46
2022/12/21 06:00:10;;;;;;;29.87;13.33;;;;;;;;;;1736591;80;21590;-46
2022/12/21 06:02:38;;;;;;;30.87;13.97;;;;;;;;;;1739266;80;21103;-46
2022/12/21 06:05:05;;;;;;;36.53;14.03;;;;;;;;;;1724492;81;21206;-47
2022/12/21 06:07:31;;;;;;;33.50;12.73;;;;;;;;;;1734876;80;21053;-47
2022/12/21 06:09:58;;;;;;;20.97;11.33;;;;;;;;;;1769210;79;21893;-47
2022/12/21 06:12:24;;;;;;;22.07;10.23;;;;;;;;;;1763169;79;21608;-47
2022/12/21 06:14:50;;;;;;;21.07;9.93;;;;;;;;;;1766169;79;21045;-47
2022/12/21 06:17:16;;;;;;;15.93;8.73;;;;;;;;;;1732448;80;21100;-47
2022/12/21 06:19:43;;;;;;;13.50;8.43;;;;;;;;;;1768122;79;22158;-47
2022/12/21 06:22:09;;;;;;;16.80;9.60;;;;;;;;;;1729163;80;23174;-47
2022/12/21 06:24:35;;;;;;;13.03;8.07;;;;;;;;;;1764287;79;21061;-47
2022/12/21 06:27:01;;;;;;;20.67;10.10;;;;;;;;;;1732798;80;21069;-47
2022/12/21 06:29:28;;;;;;;17.50;10.17;;;;;;;;;;1735578;80;21447;-47
2022/12/21 06:31:54;;;;;;;19.10;11.00;;;;;;;;;;1772234;78;20973;-47
2022/12/21 06:34:20;;;;;;;21.00;11.33;;;;;;;;;;1761703;79;21870;-47
2022/12/21 06:36:47;;;;;;;19.43;10.97;;;;;;;;;;1769090;79;21547;-47
2022/12/21 06:39:13;;;;;;;22.10;11.87;;;;;;;;;;1764564;79;21497;-47
2022/12/21 06:41:39;;;;;;;20.67;11.73;;;;;;;;;;1764401;79;21348;-47
2022/12/21 06:44:05;;;;;;;25.47;11.63;;;;;;;;;;1760255;80;21057;-47
2022/12/21 06:46:32;;;;;;;22.03;11.20;;;;;;;;;;1768111;79;21825;-47
2022/12/21 06:48:59;;;;;;;21.20;11.93;;;;;;;;;;1775205;80;21076;-47
2022/12/21 06:51:25;;;;;;;21.43;12.30;;;;;;;;;;1801580;77;21061;-47
2022/12/21 06:53:52;;;;;;;23.80;11.40;;;;;;;;;;1805204;79;21038;-47
2022/12/21 06:56:23;;;;;;;26.83;13.23;;;;;;;;;;1773110;79;21341;-47
2022/12/21 06:58:50;;;;;;;21.00;11.20;;;;;;;;;;1805334;77;21387;-47
2022/12/21 07:01:18;;;;;;;20.20;10.50;;;;;;;;;;1787626;79;21491;-47
2022/12/21 07:03:44;;;;;;;18.40;11.33;;;;;;;;;;1784336;79;21088;-47
2022/12/21 07:06:11;;;;;;;16.17;10.90;;;;;;;;;;1758326;79;21063;-46
2022/12/21 07:08:37;;;;;;;19.30;11.20;;;;;;;;;;1805187;77;21050;-47
2022/12/21 07:11:08;;;;;;;23.83;9.77;;;;;;;;;;1770142;80;22620;-47
2022/12/21 07:13:35;;;;;;;22.57;11.83;;;;;;;;;;1804548;79;21882;-46
2022/12/21 07:16:01;;;;;;;18.60;10.77;;;;;;;;;;1797351;77;21036;-46
2022/12/21 07:18:27;;;;;;;19.03;10.60;;;;;;;;;;1774229;79;22160;-46
2022/12/21 07:20:57;;;;;;;20.30;11.37;;;;;;;;;;1801029;79;21266;-47
2022/12/21 07:23:25;;;;;;;21.33;12.10;;;;;;;;;;1800062;79;21981;-46
2022/12/21 07:25:52;;;;;;;19.07;12.30;;;;;;;;;;1770132;80;20978;-46
2022/12/21 07:29:29;;;;;;;19.43;11.90;;;;;;;;;;1774073;78;27314;-45
2022/12/21 07:31:56;;;;;;;24.10;12.93;;;;;;;;;;1725936;81;21100;-45
2022/12/21 07:34:23;;;;;;;23.80;14.37;;;;;;;;;;1723471;81;21837;-47
2022/12/21 07:36:49;;;;;;;23.70;13.77;;;;;;;;;;1720053;81;21124;-47
2022/12/21 07:39:15;;;;;;;23.60;13.67;;;;;;;;;;1721600;81;21093;-47
2022/12/21 07:41:41;;;;;;;25.83;14.00;;;;;;;;;;1723264;81;21632;-47
2022/12/21 07:44:08;;;;;;;21.10;12.50;;;;;;;;;;1719726;81;21053;-47
2022/12/21 07:46:39;;;;;;;21.83;13.20;;;;;;;;;;1717280;81;22068;-47
2022/12/21 07:49:07;;;;;;;20.67;12.50;;;;;;;;;;1722589;81;21049;-47
2022/12/21 07:51:33;;;;;;;26.50;13.50;;;;;;;;;;1720320;81;21039;-47
2022/12/21 07:54:00;;;;;;;32.73;15.90;;;;;;;;;;1720854;81;21105;-47
2022/12/21 07:56:26;;;;;;;32.30;15.93;;;;;;;;;;1721556;81;21357;-47
2022/12/21 07:58:53;;;;;;;30.47;14.60;;;;;;;;;;1723399;81;23329;-47
2022/12/21 08:01:19;;;;;;;32.07;14.87;;;;;;;;;;1719496;81;21542;-46
2022/12/21 08:03:45;;;;;;;34.40;16.30;;;;;;;;;;1724940;81;21109;-47
2022/12/21 08:06:13;;;;;;;34.50;16.23;;;;;;;;;;1724111;81;21139;-47
2022/12/21 08:08:40;;;;;;;32.03;15.33;;;;;;;;;;1718712;81;21049;-47
2022/12/21 08:11:12;;;;;;;28.60;14.33;;;;;;;;;;1728420;81;21842;-46
2022/12/21 08:13:40;;;;;;;22.77;12.77;;;;;;;;;;1725934;81;21669;-47
2022/12/21 08:16:08;;;;;;;24.43;13.50;;;;;;;;;;1722140;81;21041;-47
2022/12/21 08:18:34;;;;;;;21.33;13.20;;;;;;;;;;1718919;81;21479;-47
2022/12/21 08:21:01;;;;;;;24.23;11.87;;;;;;;;;;1727390;81;21069;-47
2022/12/21 08:23:27;;;;;;;23.03;13.13;;;;;;;;;;1723333;81;23132;-47
2022/12/21 08:25:53;;;;;;;22.13;13.40;;;;;;;;;;1716167;81;22371;-46
2022/12/21 08:28:19;;;;;;;26.30;13.70;;;;;;;;;;1716158;81;21062;-47
2022/12/21 08:30:45;;;;;;;34.33;15.27;;;;;;;;;;1710862;82;21078;-47
2022/12/21 08:33:12;;;;;;;36.90;16.17;;;;;;;;;;1708798;82;21125;-47
2022/12/21 08:35:38;;;;;;;35.70;16.77;;;;;;;;;;1707602;82;22990;-47
2022/12/21 08:38:04;;;;;;;36.83;16.03;;;;;;;;;;1708714;82;21622;-46
2022/12/21 08:40:31;;;;;;;30.50;15.47;;;;;;;;;;1710035;82;21028;-47
2022/12/21 08:42:57;;;;;;;25.10;15.00;;;;;;;;;;1710409;82;21018;-47
2022/12/21 08:45:24;;;;;;;28.07;14.50;;;;;;;;;;1709023;82;21097;-48
2022/12/21 08:47:50;;;;;;;22.63;12.83;;;;;;;;;;1710109;82;22517;-46
2022/12/21 08:50:18;;;;;;;23.40;12.43;;;;;;;;;;1710278;82;21230;-47
2022/12/21 08:52:44;;;;;;;22.63;13.90;;;;;;;;;;1709265;82;21132;-48
2022/12/21 08:55:10;;;;;;;17.77;12.47;;;;;;;;;;1708398;82;21091;-47
2022/12/21 08:57:36;;;;;;;22.10;11.80;;;;;;;;;;1708918;82;21143;-47
2022/12/21 09:00:03;;;;;;;23.20;13.13;;;;;;;;;;1714352;82;21902;-48
2022/12/21 09:02:30;;;;;;;29.17;15.03;;;;;;;;;;1709383;82;21033;-48
2022/12/21 09:04:56;;;;;;;33.63;16.73;;;;;;;;;;1706383;82;21061;-47
2022/12/21 09:07:22;;;;;;;32.17;16.40;;;;;;;;;;1704147;82;21399;-48
2022/12/21 09:09:49;;;;;;;30.63;15.87;;;;;;;;;;1705236;82;21523;-47
2022/12/21 09:12:15;;;;;;;26.70;14.07;;;;;;;;;;1711750;82;21910;-48
2022/12/21 09:14:41;;;;;;;31.20;16.07;;;;;;;;;;1708604;82;21167;-46
2022/12/21 09:17:07;;;;;;;28.67;15.80;;;;;;;;;;1705613;82;21696;-47
2022/12/21 09:19:33;;;;;;;27.87;15.30;;;;;;;;;;1708279;82;21026;-47
2022/12/21 09:22:00;;;;;;;24.63;13.43;;;;;;;;;;1707876;82;21113;-47
2022/12/21 09:24:26;;;;;;;24.30;14.57;;;;;;;;;;1704909;82;22261;-49
2022/12/21 09:26:52;;;;;;;21.37;13.87;;;;;;;;;;1709356;82;21064;-48
2022/12/21 09:29:19;;;;;;;21.43;13.33;;;;;;;;;;1707386;82;21096;-48
2022/12/21 09:31:45;;;;;;;22.50;13.60;;;;;;;;;;1714607;82;21522;-50
2022/12/21 09:34:11;;;;;;;23.33;13.50;;;;;;;;;;1714416;82;21050;-50
2022/12/21 09:36:37;;;;;;;28.00;14.53;;;;;;;;;;1710858;82;21812;-50
2022/12/21 09:39:03;;;;;;;21.73;12.53;;;;;;;;;;1712809;82;21155;-51
2022/12/21 09:41:58;;;;;;;22.13;13.93;;;;;;;;;;1714457;82;21503;-48
2022/12/21 09:44:34;;;;;;;24.30;14.13;;;;;;;;;;1713937;82;21714;-49
2022/12/21 09:47:01;;;;;;;24.23;15.43;;;;;;;;;;1715065;82;22178;-49
2022/12/21 09:49:42;;;;;;;22.07;13.50;;;;;;;;;;1715651;82;21844;-49
2022/12/21 09:52:13;;;;;;;24.23;15.33;;;;;;;;;;1717610;82;20978;-51
2022/12/21 09:54:46;;;;;;;24.67;14.03;;;;;;;;;;1706458;82;21412;-51
2022/12/21 09:57:13;;;;;;;23.43;14.80;;;;;;;;;;1716425;82;21014;-51
2022/12/21 09:59:39;;;;;;;23.37;14.03;;;;;;;;;;1718581;82;21065;-48
2022/12/21 10:02:26;;;;;;;20.67;13.30;;;;;;;;;;1719261;82;21795;-51
2022/12/21 10:05:08;;;;;;;24.43;13.30;;;;;;;;;;1713976;81;21006;-50
2022/12/21 10:07:59;;;;;;;21.63;12.57;;;;;;;;;;1715738;82;21046;-50
2022/12/21 10:10:34;;;;;;;22.90;13.00;;;;;;;;;;1718121;82;22269;-50
2022/12/21 10:13:10;;;;;;;17.50;11.67;;;;;;;;;;1711879;82;21519;-48
2022/12/21 10:15:58;;;;;;;17.83;11.70;;;;;;;;;;1715744;82;21839;-50
2022/12/21 10:18:42;;;;;;;21.60;12.67;;;;;;;;;;1714535;82;21696;-48
2022/12/21 10:21:32;;;;;;;19.73;12.45;;;;;;;;;;1713373;82;21592;-48
2022/12/21 10:23:58;;;;;;;23.20;14.57;;;;;;;;;;1711515;82;21529;-49
2022/12/21 10:26:25;;;;;;;17.30;11.63;;;;;;;;;;1712492;82;21089;-50
2022/12/21 10:28:54;;;;;;;18.20;12.07;;;;;;;;;;1711097;82;21823;-50
2022/12/21 10:31:24;;;;;;;19.53;11.80;;;;;;;;;;1710038;82;22151;-49
2022/12/21 10:33:50;;;;;;;18.10;11.00;;;;;;;;;;1707329;82;21089;-47
2022/12/21 10:36:18;;;;;;;21.57;12.17;;;;;;;;;;1706866;82;22253;-50
2022/12/21 10:38:44;;;;;;;17.90;12.27;;;;;;;;;;1711557;82;21042;-50
2022/12/21 10:41:22;;;;;;;20.30;11.73;;;;;;;;;;1711168;82;22506;-50
2022/12/21 10:43:49;;;;;;;18.43;12.00;;;;;;;;;;1709347;82;21014;-50
2022/12/21 10:46:17;;;;;;;16.60;10.73;;;;;;;;;;1710852;82;22233;-50
2022/12/21 10:48:45;;;;;;;14.40;9.33;;;;;;;;;;1708452;82;22504;-49
2022/12/21 10:51:32;;;;;;;13.50;9.07;;;;;;;;;;1711194;82;21613;-50
2022/12/21 10:54:04;;;;;;;19.13;11.23;;;;;;;;;;1706573;82;23413;-50
2022/12/21 10:56:31;;;;;;;18.77;10.60;;;;;;;;;;1711188;82;21074;-50
2022/12/21 10:59:08;;;;;;;13.03;9.27;;;;;;;;;;1710729;82;21043;-49
2022/12/21 11:01:34;;;;;;;18.33;11.77;;;;;;;;;;1710143;82;21093;-49
2022/12/21 11:04:10;;;;;;;23.17;13.67;;;;;;;;;;1713689;82;21065;-49
2022/12/21 11:06:37;;;;;;;21.47;12.33;;;;;;;;;;1710047;82;21852;-49
2022/12/21 11:09:07;;;;;;;18.90;11.63;;;;;;;;;;1710400;82;21522;-50
2022/12/21 11:11:35;;;;;;;20.60;12.20;;;;;;;;;;1708161;82;21057;-49
2022/12/21 11:14:05;;;;;;;23.37;12.53;;;;;;;;;;1708877;82;22455;-51
2022/12/21 11:16:31;;;;;;;21.27;12.97;;;;;;;;;;1708547;82;21064;-50
2022/12/21 11:18:59;;;;;;;25.03;14.27;;;;;;;;;;1713615;82;21824;-50
2022/12/21 11:21:32;;;;;;;21.33;12.90;;;;;;;;;;1708080;82;22183;-50
2022/12/21 11:24:09;;;;;;;19.42;12.65;;;;;;;;;;1709010;82;21053;-52
2022/12/21 11:26:38;;;;;;;25.60;12.83;;;;;;;;;;1700919;82;22289;-51
2022/12/21 11:29:06;;;;;;;19.67;13.40;;;;;;;;;;1715323;81;21587;-49
2022/12/21 11:31:33;;;;;;;21.83;14.87;;;;;;;;;;1725346;81;21803;-50
2022/12/21 11:33:59;;;;;;;20.23;13.00;;;;;;;;;;1717423;81;22274;-50
2022/12/21 11:36:26;;;;;;;21.83;13.47;;;;;;;;;;1721995;81;21101;-50
2022/12/21 11:38:53;;;;;;;24.23;14.20;;;;;;;;;;1723471;81;21130;-51
2022/12/21 11:41:25;;;;;;;23.80;16.03;;;;;;;;;;1721604;81;20994;-50
2022/12/21 11:43:51;;;;;;;26.40;16.27;;;;;;;;;;1724924;81;21804;-50
2022/12/21 11:46:33;;;;;;;23.13;13.53;;;;;;;;;;1726090;81;21021;-51
2022/12/21 11:49:18;;;;;;;21.20;14.43;;;;;;;;;;1725258;81;20978;-50
2022/12/21 11:52:00;;;;;;;27.65;17.52;;;;;;;;;;1727752;81;20974;-51
2022/12/21 11:54:42;;;;;;;30.33;18.57;;;;;;;;;;1720096;81;21003;-51
2022/12/21 11:57:33;;;;;;;25.77;17.43;;;;;;;;;;1708663;81;22462;-51
2022/12/21 12:00:05;;;;;;;31.90;18.77;;;;;;;;;;1721714;81;21561;-51
2022/12/21 12:02:43;;;;;;;29.85;19.23;;;;;;;;;;1719398;81;21554;-48
2022/12/21 12:05:31;;;;;;;34.83;20.13;;;;;;;;;;1723614;81;21139;-49
2022/12/21 12:08:18;;;;;;;30.03;18.57;;;;;;;;;;1720561;81;21251;-50
2022/12/21 12:11:00;;;;;;;27.00;16.70;;;;;;;;;;1702102;82;21762;-49
2022/12/21 12:13:59;;;;;;;26.07;16.53;;;;;;;;;;1720549;81;21115;-50
2022/12/21 12:16:46;;;;;;;23.10;14.00;;;;;;;;;;1718341;81;21031;-51
2022/12/21 12:19:34;;;;;;;27.77;16.53;;;;;;;;;;1725701;81;21137;-51
2022/12/21 12:22:37;;;;;;;24.03;14.83;;;;;;;;;;1727870;81;20985;-52
2022/12/21 12:25:09;;;;;;;24.27;14.23;;;;;;;;;;1723624;81;21817;-52
2022/12/21 12:27:48;;;;;;;26.83;14.43;;;;;;;;;;1725415;81;21022;-51
2022/12/21 12:30:20;;;;;;;24.93;13.97;;;;;;;;;;1718958;81;21543;-53
2022/12/21 12:33:14;;;;;;;24.73;15.20;;;;;;;;;;1719374;82;20963;-54
2022/12/21 12:35:53;;;;;;;19.30;13.37;;;;;;;;;;1721206;82;21152;-50
2022/12/21 12:38:41;;;;;;;27.53;16.20;;;;;;;;;;1717627;82;21793;-51
2022/12/21 12:41:28;;;;;;;27.87;15.13;;;;;;;;;;1718621;82;20984;-51
2022/12/21 12:44:03;;;;;;;26.60;17.03;;;;;;;;;;1713939;82;21446;-51
2022/12/21 12:46:34;;;;;;;;;;;;;;;;;;1719918;82;21640;-52
2022/12/21 12:49:24;;;;;;;26.73;17.37;;;;;;;;;;1714855;82;20520;-53
2022/12/21 12:52:00;;;;;;;26.20;16.43;;;;;;;;;;1685595;82;22036;-53
2022/12/21 12:54:46;;;;;;;29.80;18.97;;;;;;;;;;1716821;82;20972;-51
2022/12/21 12:57:16;;;;;;;24.70;16.43;;;;;;;;;;1716848;82;21013;-54
2022/12/21 12:59:46;;;;;;;22.47;15.17;;;;;;;;;;1715036;82;21586;-51
2022/12/21 13:02:18;;;;;;;23.60;15.03;;;;;;;;;;1693050;82;21380;-52
2022/12/21 13:05:05;;;;;;;24.60;15.53;;;;;;;;;;1719946;82;21752;-50
2022/12/21 13:07:35;;;;;;;24.37;16.17;;;;;;;;;;1718098;82;21128;-51
2022/12/21 13:10:21;;;;;;;23.00;14.63;;;;;;;;;;1712344;82;21592;-53
2022/12/21 13:12:51;;;;;;;32.30;17.10;;;;;;;;;;1715994;82;21034;-52
2022/12/21 13:15:24;;;;;;;24.80;14.67;;;;;;;;;;1712147;82;21109;-51
2022/12/21 13:18:06;;;;;;;25.73;15.23;;;;;;;;;;1718304;82;21994;-51
2022/12/21 13:20:33;;;;;;;18.30;11.80;;;;;;;;;;1711948;82;21505;-53
2022/12/21 13:23:03;;;;;;;21.27;13.97;;;;;;;;;;1713116;82;20975;-51
2022/12/21 13:25:40;;;;;;;26.43;15.83;;;;;;;;;;1715489;82;20966;-52
2022/12/21 13:28:25;;;;;;;20.43;13.50;;;;;;;;;;1714385;82;21325;-50
2022/12/21 13:30:52;;;;;;;25.63;16.20;;;;;;;;;;1715059;82;21819;-51
2022/12/21 13:33:18;;;;;;;32.20;18.60;;;;;;;;;;1711771;81;21354;-53
2022/12/21 13:36:04;;;;;;;31.03;18.97;;;;;;;;;;1709971;82;21076;-52
2022/12/21 13:38:34;;;;;;;31.70;20.20;;;;;;;;;;1710876;82;21064;-51
2022/12/21 13:41:16;;;;;;;29.60;17.83;;;;;;;;;;1710275;82;21625;-51
2022/12/21 13:43:46;;;;;;;27.73;16.23;;;;;;;;;;1709541;82;21842;-51
2022/12/21 13:46:13;;;;;;;27.03;15.93;;;;;;;;;;1709083;82;21044;-51
2022/12/21 13:48:45;;;;;;;23.57;15.20;;;;;;;;;;1708778;82;21091;-51
2022/12/21 13:51:20;;;;;;;26.60;15.73;;;;;;;;;;1708448;82;21539;-53
2022/12/21 13:54:26;;;;;;;22.57;14.67;;;;;;;;;;1706597;82;21085;-51
2022/12/21 13:57:19;;;;;;;29.85;16.95;;;;;;;;;;1710278;82;21910;-53
2022/12/21 14:00:13;;;;;;;26.10;14.13;;;;;;;;;;1705589;82;21052;-51
2022/12/21 14:02:43;;;;;;;23.97;15.70;;;;;;;;;;1705945;82;21081;-51
2022/12/21 14:05:27;;;;;;;22.63;14.03;;;;;;;;;;1710990;82;21105;-53
2022/12/21 14:08:14;;;;;;;21.77;13.27;;;;;;;;;;1708608;82;21058;-51
2022/12/21 14:10:50;;;;;;;19.03;12.57;;;;;;;;;;1705859;82;21501;-52
2022/12/21 14:13:32;;;;;;;25.57;14.67;;;;;;;;;;1707008;81;21085;-50
2022/12/21 18:08:10;;;;;;;28.90;17.47;;;;;;;1.56;100.00;99776.50;1775806;78;26384;-51
2022/12/21 18:10:37;;;;;;;27.83;16.20;;;;;;;1.67;100.00;99796.29;1759833;78;20952;-51
2022/12/21 18:13:03;;;;;;;29.27;17.47;;;;;;;1.75;100.00;99794.42;1786147;78;21674;-51
2022/12/21 18:15:30;;;;;;;30.50;18.67;;;;;;;1.78;100.00;99796.60;1789123;78;21371;-51
2022/12/21 18:18:17;;;;;;;31.97;18.67;;;;;;;1.83;100.00;99803.17;1734938;78;21011;-51
2022/12/21 18:20:46;;;;;;;31.57;18.20;;;;;;;1.87;100.00;99804.91;1788406;78;20988;-51
2022/12/21 18:23:15;;;;;;;34.90;18.80;;;;;;;1.87;100.00;99803.09;1789864;78;21023;-51
2022/12/21 18:25:42;;;;;;;32.03;19.47;;;;;;;1.86;100.00;99798.71;1791096;78;21481;-51
2022/12/21 18:28:13;;;;;;;31.33;17.37;;;;;;;1.89;100.00;99795.13;1788782;78;21041;-51
2022/12/21 18:30:40;;;;;;;32.17;18.63;;;;;;;1.88;100.00;99790.26;1785324;78;22039;-51
2022/12/21 18:33:14;;;;;;;32.90;17.87;;;;;;;1.89;100.00;99787.16;1782506;78;21070;-51
2022/12/21 18:35:40;;;;;;;32.40;18.05;;;;;;;1.89;100.00;99772.55;1787977;78;21139;-52
2022/12/21 18:38:21;;;;;;;33.23;18.70;;;;;;;1.90;100.00;99766.36;1789070;78;21784;-52
2022/12/21 18:40:47;;;;;;;33.60;19.63;;;;;;;1.88;100.00;99771.67;1781615;78;21289;-51
2022/12/21 18:43:34;;;;;;;37.10;20.03;;;;;;;1.88;100.00;99774.78;1788888;78;21082;-51
2022/12/21 18:46:23;;;;;;;35.97;19.60;;;;;;;1.89;100.00;99771.23;1790694;78;21091;-50
2022/12/21 18:48:50;;;;;;;39.20;19.60;;;;;;;1.87;100.00;99771.24;1786565;78;21055;-50
2022/12/21 18:51:34;;;;;;;36.03;20.37;;;;;;;1.87;100.00;99779.20;1785498;78;21464;-50
2022/12/21 18:54:01;;;;;;;32.80;18.70;;;;;;;1.87;100.00;99773.05;1788927;78;21504;-51
2022/12/21 18:56:29;;;;;;;35.67;20.03;;;;;;;1.87;100.00;99766.41;1786139;78;21064;-51
2022/12/21 18:58:55;;;;;;;34.57;18.83;;;;;;;1.87;100.00;99763.28;1783613;78;21049;-51
2022/12/21 19:01:24;;;;;;;33.57;18.50;;;;;;;1.88;100.00;99760.18;1786497;78;20977;-51
2022/12/21 19:03:51;;;;;;;29.57;18.10;;;;;;;1.87;100.00;99761.11;1782072;78;21874;-51
2022/12/21 19:06:28;;;;;;;28.50;18.03;;;;;;;1.85;100.00;99758.47;1782827;78;20989;-51
2022/12/21 19:09:04;;;;;;;30.33;17.40;;;;;;;1.85;100.00;99761.12;1784389;78;21845;-51
2022/12/21 19:11:31;;;;;;;33.17;18.97;;;;;;;1.85;100.00;99763.77;1779913;78;21096;-51
2022/12/21 19:13:58;;;;;;;30.00;17.60;;;;;;;1.85;100.00;99760.23;1787521;78;21314;-51
2022/12/21 19:16:32;;;;;;;31.50;17.37;;;;;;;1.85;100.00;99761.57;1783757;78;21490;-51
2022/12/21 19:19:15;;;;;;;25.57;16.20;;;;;;;1.84;100.00;99763.34;1793188;78;21001;-51
2022/12/21 19:21:42;;;;;;;33.17;19.97;;;;;;;1.82;100.00;99757.17;1783838;78;21100;-51
2022/12/21 19:24:13;;;;;;;33.40;18.27;;;;;;;1.82;100.00;99753.63;1782888;78;21053;-51
2022/12/21 19:26:40;;;;;;;36.03;18.60;;;;;;;1.79;100.00;99755.87;1779347;78;21681;-51
2022/12/21 19:29:17;;;;;;;32.60;19.70;;;;;;;1.78;100.00;99762.55;1782837;78;21217;-51
2022/12/21 19:31:45;;;;;;;33.30;18.47;;;;;;;1.76;100.00;99766.55;1782734;78;22400;-51
2022/12/21 19:34:11;;;;;;;35.93;18.93;;;;;;;1.76;100.00;99764.34;1783848;78;21025;-51
2022/12/21 19:36:41;;;;;;;32.60;20.37;;;;;;;1.75;100.00;99758.15;1779522;78;21051;-51
2022/12/21 19:39:34;;;;;;;31.50;18.77;;;;;;;1.73;100.00;99757.28;1786338;78;21075;-51
2022/12/21 19:42:06;;;;;;;32.73;18.20;;;;;;;1.73;100.00;99756.41;1785624;78;22524;-50
2022/12/21 19:44:34;;;;;;;31.40;19.07;;;;;;;1.71;100.00;99764.37;1785658;78;21032;-50
2022/12/21 19:47:02;;;;;;;33.40;19.63;;;;;;;1.71;100.00;99761.72;1778741;78;21717;-50
2022/12/21 19:49:29;;;;;;;33.40;18.20;;;;;;;1.69;100.00;99762.66;1726496;78;20977;-50
2022/12/21 19:51:56;;;;;;;36.03;19.40;;;;;;;1.69;100.00;99761.34;1784571;78;21005;-50
2022/12/21 19:54:24;;;;;;;32.93;17.53;;;;;;;1.69;100.00;99754.70;1785449;78;21763;-51
2022/12/21 19:56:53;;;;;;;33.23;19.30;;;;;;;1.67;100.00;99752.06;1784956;78;21048;-50
2022/12/21 19:59:25;;;;;;;29.20;17.20;;;;;;;1.66;100.00;99750.75;1783876;78;21072;-50
2022/12/21 20:01:56;;;;;;;30.33;17.23;;;;;;;1.67;100.00;99752.51;1782365;78;21067;-50
2022/12/21 20:04:23;;;;;;;29.80;16.97;;;;;;;1.66;100.00;99754.28;1779730;78;21087;-50
2022/12/21 20:06:49;;;;;;;29.90;17.80;;;;;;;1.67;100.00;99753.84;1784741;78;21812;-50
2022/12/21 20:09:23;;;;;;;34.37;19.80;;;;;;;1.66;100.00;99753.41;1784805;78;21583;-51
2022/12/21 20:11:52;;;;;;;33.90;18.77;;;;;;;1.65;100.00;99753.84;1784460;78;21058;-57
2022/12/21 20:14:36;;;;;;;29.00;16.87;;;;;;;1.65;100.00;99748.98;1781898;78;21669;-53
2022/12/21 20:17:22;;;;;;;29.82;18.12;;;;;;;1.63;100.00;99749.45;1708067;78;21063;-52
2022/12/21 20:19:52;;;;;;;28.60;16.97;;;;;;;1.62;100.00;99747.24;1783184;78;21978;-52
2022/12/21 20:22:19;;;;;;;28.13;17.47;;;;;;;1.61;100.00;99744.63;1786171;78;21010;-51
2022/12/21 20:24:47;;;;;;;33.77;19.03;;;;;;;1.60;100.00;99748.18;1783876;78;20985;-52
2022/12/21 20:27:27;;;;;;;38.30;19.00;;;;;;;1.58;100.00;99747.31;1782579;78;20991;-54
2022/12/21 20:29:54;;;;;;;34.67;19.40;;;;;;;1.57;100.00;99744.23;1789685;78;21005;-51
2022/12/21 20:32:29;;;;;;;35.40;18.03;;;;;;;1.55;100.00;99746.02;1788338;78;21784;-53
2022/12/21 20:35:00;;;;;;;32.47;16.80;;;;;;;1.55;100.00;99738.05;1727608;78;20974;-52
2022/12/21 20:37:29;;;;;;;34.30;19.50;;;;;;;1.53;100.00;99734.56;1779988;78;21752;-53
2022/12/21 20:39:57;;;;;;;32.83;18.67;;;;;;;1.52;100.00;99738.99;1784591;78;21032;-52
2022/12/21 20:45:22;;;;;;;33.43;18.73;;;;;;;1.48;100.00;99740.78;1779887;78;22182;-51
2022/12/21 20:47:49;;;;;;;32.23;18.97;;;;;;;1.47;100.00;99737.70;1737560;78;21056;-51
2022/12/21 20:50:19;;;;;;;38.17;18.87;;;;;;;1.47;100.00;99739.47;1789563;78;21608;-51
2022/12/21 20:52:45;;;;;;;36.37;20.03;;;;;;;1.46;100.00;99742.57;1785125;78;21549;-51
2022/12/21 20:57:57;;;;;;;33.20;17.63;;;;;;;1.43;100.00;99737.33;1789219;78;21254;-52